South Whitley, Indiana
Current Conditions -  °F | °C
As of 2:55 PM on Saturday 25 Oct 2014 (Local Time) from KASW Reporting Station
Clear Clear  
Wind Chill: 68°   Ceiling: Unl
Heat Index: 68°   Visibility: 10mi
Dew Point: 46°   Wind: 15mph
Humidity: 46%   Direction: 320°NW
Pressure: 29.89"   Gusts: NA
Location:  41.08°N, 85.63°W
Report Text: KASW 251855Z AUTO 32013KT 10SM CLR 20/08 A2989 RMK AO2
Loading
Personal Weather Stations






























Interactive Weather Map
Tropical Storm Tracking
New forecast layout! Learn more

10-Day Weather Forecast

Advertisements
Track Severe Weather on mobile